Terminal Aerodrome Forecast
Issued by NWS Mobile, AL

Home | Current Version | Previous Version | Text Only | Print | Product List | Glossary On
Versions: 1 2 3 4 5 6 7 8 9 10 11 12 13 14 15
000
FTUS44 KMOB 172320
TAFPNS
TAF
KPNS 172320Z 1800/1824 36005KT 2SM -RA BR SCT005 BKN009 OVC015
     FM180400 20007KT 3/4SM BR OVC007
      TEMPO 1808/1812 1/2SM -RA FG OVC005
     FM181200 30006KT 3/4SM -RA BR OVC005
     FM181800 26010KT 5SM BR VCSH OVC007=

USA.gov is the U.S. government's official web portal to all federal, state and local government web resources and services.